ZNE weather

Newman Airport
Newman, Western Australia, Australia

Public forecast

Using degrees Celsius for public forecast. Weather courtesy of forecast.io.

METAR (pilot weather report)

Retrieved 2019/03/19 14:00 UTC (52 minutes ago):

YNWN 191400Z AUTO 17003KT 9999 // NCD 29/15 Q1011

TAF (pilot weather forecast)

Forecast is more than 12 hours old.

Closest forecast is Telfer Airport, 168.9 nm (312.9 km) NE. Retrieved 2017/06/24 02:03 UTC (2 years ago):

TAF TAF YTEF 240051Z 2402/2414 12005KT CAVOK FM240500 33005KT 9999 -SHRA SCT060 BKN100